Airfield :
LOGIN :

Register | Disclaimer

   EN    FR    IT 

 










Legend :    VFR   Marginal VFR   IFR   Intensive IFR   Very Intensive IFR
Visi :
Ceiling :
>= 8 km
>= 3000ft
5 to 8 km
1000 to 3000 ft
1500m to 5 km
500 to 1000 ft
800 to 1500m
200 to 500 ft
< 800m
< 200 ft
Symbols :   Thunderstorms  Fog  Heavy snow  Heavy precipitations  Wind > 20 kt
SIGMETs :     Misc.  Thunderstorms  Icing  Turbulence  Mountain Waves  Volcanic Ashes







- Airport Elevation : 19 ft
- IATA code : LCY
- Download approach charts


EGLC - London City

CURRENT METAR :
  • 120550Z AUTO 10010KT 5000 -RA OVC021 07/06 Q1022

EXPIRED METARs :
  • 120520Z AUTO 10009KT 9000 BKN030 OVC043 08/05 Q1022
  • 120450Z AUTO 11008KT 9999 FEW031 OVC038 08/05 Q1022
  • 120420Z AUTO 11008KT 9999 OVC040 08/05 Q1022
  • 120350Z AUTO 11008KT 9999 BKN035 OVC041 08/05 Q1022
  • 120320Z AUTO 11009KT 9999 OVC031 08/05 Q1022

TAF AMD TAF EGLC
Valid from the 12 at 06:00 until the 12 at 15:00 UTC


120612Z 1206/1215 12009KT 9999 BKN040
PROB30
TEMPO 1206/1208 5000 -RA BKN014
ATIS : +44 20 7646 0224
No reported NOTAMs for that airfield.



MET'MAP, your aeronautical weather chart ! - Copyright ORBIFLY December 2007 - Disclaimer

ORBIFLY MET'MAP TEAM :

Programming & Development : Alexandra Zaïnal
Concept & Development : Baudouin d'Aumeries
Co-Development & Prog : Marc-Olivier Méhu
Technical & hardware support : Manuel Goepfert

Contact : metmap@orbifly.com




SOURCES & CREDITS :

   NOAA